Woodward, OK

3:14 PM CST on December 19, 2014 (GMT -0600)
Hemphill County | Change Station
CLOSE
Current Station
Airport
Location: Canadian,
Elevation: 2395 ft
Nearby Weather Stations

Elev 2395 ft 35.89 °N, 100.40 °W | Updated 19 minutes ago

Overcast
Overcast
43 °F
Feels Like 40 °F
N
5
Wind Variable Wind from SW

Today
High -- | Low -- °F
--% Chance of Precip.
Yesterday
High -- | Low -- °F
Precip. -- in
7:44 AM 5:25 PM
Waning Crescent, 6% visible
Pressure 30.12 in
Visibility 10.0 miles
Clouds Overcast 1300 ft
Windchill 40 °F
Dew Point 40 °F
Humidity 88%
Rainfall 0.00 in
Snow Depth Not available.
UV 1 out of 12
Pollen .10 out of 12
Air Quality Not available.
Flu Activity Not available.
METAR KHHF 192055Z AUTO 23004KT 10SM OVC013 06/04 A3012 RMK AO2 T00620044

More Conditions Fewer Conditions

Pressure 30.12 in
Visibility 10.0 miles
Clouds Overcast 1300 ft
Windchill 40 °F
Dew Point 40 °F
Humidity 88%
Rainfall 0.00 in
Snow Depth Not available.
UV 1 out of 12
Pollen .10 out of 12
Air Quality Not available.
Flu Activity Not available.
METAR KHHF 192055Z AUTO 23004KT 10SM OVC013 06/04 A3012 RMK AO2 T00620044

More Conditions Fewer Conditions

10-Day Weather Forecast

Almanac

Astronomy

Dec. 19, 2014 Rise Set
Actual Time
Civil Twilight
Nautical Twilight
Astronomical Twilight
Moon
Length of Visible Light
Length of Day
Tomorrow will be .
, % of the Moon is Illuminated

Today's Extremes

State Highs State Lows

Community

WunderPhotos

Upload Photos

1,779,053 photos uploaded!

WunderBlogs® & News

Nearby

Air Quality

  Air Quality AQ Index Pollutant
Not available.

Snow Depth

Station Depth Elevation

Earthquake Activity

City Distance Mag. Time & Date
Minimum magnitude displayed is 2.5.

Coastal Water Temperatures

Place Temperature

Nearby Weather Stations